createdAt,value
2023-01-31T00:01:37.519Z,35.13
2023-01-31T00:04:07.201Z,31.70
2023-01-31T00:06:37.501Z,32.50
2023-01-31T00:09:05.522Z,31.35
2023-01-31T00:11:32.667Z,30.48
2023-01-31T00:14:00.463Z,32.90
2023-01-31T00:16:27.255Z,35.53
2023-01-31T00:18:54.004Z,27.92
2023-01-31T00:21:23.807Z,31.58
2023-01-31T00:23:51.542Z,29.15
2023-01-31T00:26:30.034Z,32.05
2023-01-31T00:28:58.181Z,29.50
2023-01-31T00:31:26.811Z,27.60
2023-01-31T00:33:55.026Z,30.52
2023-01-31T00:36:28.015Z,27.42
2023-01-31T00:38:57.177Z,30.17
2023-01-31T00:41:25.430Z,28.92
2023-01-31T00:43:52.271Z,25.45
2023-01-31T00:46:20.499Z,29.90
2023-01-31T00:48:47.802Z,26.05
2023-01-31T00:51:14.965Z,29.00
2023-01-31T00:53:41.788Z,25.40
2023-01-31T00:56:14.196Z,28.45
2023-01-31T00:58:41.078Z,27.10
2023-01-31T01:01:11.871Z,25.02
2023-01-31T01:03:39.342Z,23.92
2023-01-31T01:06:07.121Z,22.13
2023-01-31T01:08:35.432Z,23.25
2023-01-31T01:11:17.294Z,26.10
2023-01-31T01:13:44.827Z,23.88
2023-01-31T01:16:17.540Z,21.85
2023-01-31T01:18:46.436Z,22.05
2023-01-31T01:21:16.217Z,19.38
2023-01-31T01:23:42.987Z,23.10
2023-01-31T01:26:18.499Z,20.23
2023-01-31T01:28:45.856Z,21.80
2023-01-31T01:31:14.320Z,22.80
2023-01-31T01:33:40.968Z,19.10
2023-01-31T01:36:11.644Z,19.48
2023-01-31T01:38:38.205Z,21.02
2023-01-31T01:41:05.622Z,21.10
2023-01-31T01:43:56.154Z,20.80
2023-01-31T01:46:28.186Z,21.35
2023-01-31T01:49:02.815Z,22.05
2023-01-31T01:51:32.622Z,20.98
2023-01-31T01:54:03.258Z,17.83
2023-01-31T01:56:37.461Z,16.80
2023-01-31T01:59:12.493Z,18.98
2023-01-31T02:01:39.535Z,16.60
2023-01-31T02:04:09.231Z,16.08
2023-01-31T02:06:36.169Z,16.17
2023-01-31T02:09:06.524Z,16.48
2023-01-31T02:11:33.549Z,15.35
2023-01-31T02:14:09.501Z,16.05
2023-01-31T02:16:37.219Z,15.73
2023-01-31T02:19:12.149Z,17.10
2023-01-31T02:21:53.770Z,14.40
2023-01-31T02:24:54.224Z,15.45
2023-01-31T02:27:41.350Z,15.15
2023-01-31T02:30:32.446Z,14.50
2023-01-31T02:33:17.578Z,13.30
2023-01-31T02:36:11.700Z,13.63
2023-01-31T02:38:54.271Z,14.45
2023-01-31T02:41:26.577Z,13.02
2023-01-31T02:44:24.854Z,14.32
2023-01-31T02:47:05.989Z,13.90
2023-01-31T02:49:42.101Z,15.10
2023-01-31T02:52:52.852Z,12.60
2023-01-31T02:55:44.246Z,14.98
2023-01-31T02:58:14.625Z,14.55
2023-01-31T03:00:45.481Z,12.05
2023-01-31T03:03:25.010Z,13.55
2023-01-31T03:06:14.363Z,18.65
2023-01-31T03:08:44.702Z,16.48
2023-01-31T03:11:11.449Z,9.70
2023-01-31T03:13:54.439Z,12.70
2023-01-31T03:16:47.147Z,12.00
2023-01-31T03:19:21.955Z,11.05
2023-01-31T03:22:16.338Z,9.98
2023-01-31T03:24:47.299Z,10.52
2023-01-31T03:27:15.601Z,10.90
2023-01-31T03:29:43.673Z,11.07
2023-01-31T03:32:33.397Z,12.38
2023-01-31T03:35:00.055Z,10.68
2023-01-31T03:37:39.942Z,9.88
2023-01-31T03:40:21.537Z,11.48
2023-01-31T03:43:01.414Z,9.18
2023-01-31T03:45:38.689Z,10.25
2023-01-31T03:48:14.350Z,10.73
2023-01-31T03:50:46.469Z,12.65
2023-01-31T03:53:12.899Z,9.40
2023-01-31T03:55:53.636Z,10.10
2023-01-31T03:58:23.773Z,8.82
2023-01-31T04:00:52.387Z,7.90
2023-01-31T04:03:21.339Z,10.40
2023-01-31T04:05:49.112Z,9.70
2023-01-31T04:08:16.641Z,10.00
2023-01-31T04:10:43.768Z,9.77
2023-01-31T04:13:10.295Z,10.38
2023-01-31T04:15:37.013Z,8.80
2023-01-31T04:18:03.646Z,8.57
2023-01-31T04:20:30.161Z,11.07
2023-01-31T04:22:56.690Z,7.45
2023-01-31T04:25:23.452Z,11.13
2023-01-31T04:27:51.577Z,10.32
2023-01-31T04:30:18.396Z,10.93
2023-01-31T04:32:44.876Z,8.45
2023-01-31T04:35:11.663Z,7.55
2023-01-31T04:37:38.216Z,10.73
2023-01-31T04:40:05.809Z,9.18
2023-01-31T04:42:32.352Z,10.20
2023-01-31T04:44:59.888Z,8.38
2023-01-31T04:47:26.356Z,9.38
2023-01-31T04:49:52.853Z,9.93
2023-01-31T04:52:19.412Z,9.10
2023-01-31T04:54:45.893Z,7.03
2023-01-31T04:57:12.437Z,7.40
2023-01-31T04:59:38.979Z,7.55
2023-01-31T05:02:06.107Z,10.73
2023-01-31T05:04:32.817Z,7.75
2023-01-31T05:06:59.327Z,12.07
2023-01-31T05:09:26.284Z,10.45
2023-01-31T05:11:52.813Z,10.23
2023-01-31T05:14:21.060Z,8.13
2023-01-31T05:16:47.651Z,7.55
2023-01-31T05:19:17.453Z,9.30
2023-01-31T05:21:58.895Z,10.77
2023-01-31T05:24:29.400Z,11.77
2023-01-31T05:26:58.740Z,8.32
2023-01-31T05:29:26.883Z,10.43
2023-01-31T05:31:55.874Z,10.30
2023-01-31T05:34:25.170Z,11.90
2023-01-31T05:36:52.576Z,11.65
2023-01-31T05:39:19.283Z,12.93
2023-01-31T05:41:46.195Z,8.82
2023-01-31T05:44:12.750Z,10.23
2023-01-31T05:46:39.356Z,9.73
2023-01-31T05:49:05.997Z,7.57
2023-01-31T05:51:32.580Z,7.93
2023-01-31T05:53:59.149Z,13.80
2023-01-31T05:56:26.529Z,8.50
2023-01-31T05:58:53.241Z,8.30
2023-01-31T06:01:22.915Z,9.85
2023-01-31T06:03:49.928Z,8.52
2023-01-31T06:06:16.566Z,6.90
2023-01-31T06:08:43.602Z,11.65
2023-01-31T06:11:11.645Z,8.38
2023-01-31T06:13:38.795Z,13.02
2023-01-31T06:16:06.014Z,10.23
2023-01-31T06:18:33.116Z,7.45
2023-01-31T06:20:59.881Z,11.98
2023-01-31T06:23:26.475Z,11.27
2023-01-31T06:25:53.995Z,9.90
2023-01-31T06:28:20.762Z,10.25
2023-01-31T06:30:47.652Z,8.23
2023-01-31T06:33:14.910Z,11.57
2023-01-31T06:35:42.041Z,12.73
2023-01-31T06:38:08.738Z,12.00
2023-01-31T06:40:36.542Z,7.53
2023-01-31T06:43:03.130Z,7.40
2023-01-31T06:45:29.825Z,9.93
2023-01-31T06:47:56.613Z,7.55
2023-01-31T06:50:23.200Z,6.57
2023-01-31T06:52:49.669Z,10.80
2023-01-31T06:55:16.259Z,13.25
2023-01-31T06:57:47.448Z,10.35
2023-01-31T07:00:14.549Z,9.25
2023-01-31T07:02:41.025Z,7.22
2023-01-31T07:05:07.891Z,9.73
2023-01-31T07:07:34.463Z,10.43
2023-01-31T07:10:01.020Z,6.43
2023-01-31T07:12:28.367Z,7.20
2023-01-31T07:14:54.877Z,9.93
2023-01-31T07:17:21.489Z,10.63
2023-01-31T07:19:48.017Z,10.48
2023-01-31T07:22:14.652Z,8.55
2023-01-31T07:24:41.475Z,8.30
2023-01-31T07:27:08.287Z,9.63
2023-01-31T07:29:36.787Z,9.80
2023-01-31T07:32:04.119Z,9.77
2023-01-31T07:34:31.188Z,11.27
2023-01-31T07:36:57.734Z,6.10
2023-01-31T07:39:24.239Z,7.40
2023-01-31T07:41:50.774Z,9.55
2023-01-31T07:44:17.354Z,8.40
2023-01-31T07:46:43.842Z,11.90
2023-01-31T07:49:11.257Z,8.60
2023-01-31T07:51:38.933Z,10.68
2023-01-31T07:54:07.509Z,9.75
2023-01-31T07:56:34.084Z,6.65
2023-01-31T07:59:00.609Z,6.82
2023-01-31T08:01:48.263Z,8.02
2023-01-31T08:04:21.912Z,6.60
2023-01-31T08:06:50.896Z,9.43
2023-01-31T08:09:17.442Z,6.93
2023-01-31T08:11:44.022Z,5.80
2023-01-31T08:14:10.895Z,7.57
2023-01-31T08:16:37.910Z,8.90
2023-01-31T08:19:04.681Z,8.52
2023-01-31T08:21:31.669Z,7.70
2023-01-31T08:23:58.261Z,6.03
2023-01-31T08:26:24.858Z,8.20
2023-01-31T08:28:52.772Z,7.80
2023-01-31T08:31:25.205Z,7.03
2023-01-31T08:33:53.585Z,7.68
2023-01-31T08:36:29.691Z,8.07
2023-01-31T08:38:56.495Z,10.60
2023-01-31T08:41:25.080Z,8.05
2023-01-31T08:43:56.742Z,6.05
2023-01-31T08:46:31.028Z,4.90
2023-01-31T08:48:58.413Z,6.20
2023-01-31T08:51:25.269Z,6.28
2023-01-31T08:53:52.238Z,5.55
2023-01-31T08:56:21.374Z,8.57
2023-01-31T08:58:48.292Z,5.82
2023-01-31T09:01:17.299Z,7.55
2023-01-31T09:03:45.806Z,7.25
2023-01-31T09:06:15.538Z,6.50
2023-01-31T09:08:42.026Z,6.10
2023-01-31T09:11:08.710Z,8.75
2023-01-31T09:13:35.757Z,8.57
2023-01-31T09:16:11.204Z,8.07
2023-01-31T09:18:39.402Z,7.65
2023-01-31T09:21:10.917Z,7.60
2023-01-31T09:23:40.075Z,5.57
2023-01-31T09:26:09.067Z,9.40
2023-01-31T09:28:35.620Z,6.63
2023-01-31T09:31:10.810Z,9.18
2023-01-31T09:33:37.458Z,5.80
2023-01-31T09:36:09.558Z,4.93
2023-01-31T09:38:36.841Z,4.65
2023-01-31T09:41:06.408Z,7.95
2023-01-31T09:43:43.735Z,4.47
2023-01-31T09:46:16.884Z,8.43
2023-01-31T09:48:48.808Z,5.03
2023-01-31T09:51:16.876Z,4.93
2023-01-31T09:53:44.872Z,6.05
2023-01-31T09:56:33.240Z,5.28
2023-01-31T09:59:19.615Z,6.70
2023-01-31T10:01:52.680Z,4.53
2023-01-31T10:04:24.499Z,5.95
2023-01-31T10:07:23.685Z,5.93
2023-01-31T10:09:57.229Z,9.07
2023-01-31T10:12:44.374Z,7.25
2023-01-31T10:15:21.059Z,4.80
2023-01-31T10:17:53.261Z,8.23
2023-01-31T10:20:47.203Z,7.70
2023-01-31T10:23:13.625Z,5.30
2023-01-31T10:25:50.838Z,6.28
2023-01-31T10:28:26.197Z,7.20
2023-01-31T10:31:16.346Z,5.72
2023-01-31T10:33:58.027Z,5.63
2023-01-31T10:36:36.959Z,6.45
2023-01-31T10:39:29.067Z,10.07
2023-01-31T10:42:02.562Z,5.82
2023-01-31T10:44:46.530Z,6.22
2023-01-31T10:47:15.424Z,4.82
2023-01-31T10:49:48.996Z,3.72
2023-01-31T10:53:00.315Z,3.47
2023-01-31T10:55:41.312Z,4.72
2023-01-31T10:58:18.793Z,6.57
2023-01-31T11:00:47.360Z,5.40
2023-01-31T11:03:15.443Z,4.35
2023-01-31T11:05:52.980Z,5.03
2023-01-31T11:08:32.577Z,6.35
2023-01-31T11:11:05.612Z,5.75
2023-01-31T11:13:32.155Z,3.20
2023-01-31T11:15:59.276Z,4.88
2023-01-31T11:18:30.341Z,5.68
2023-01-31T11:20:58.538Z,5.13
2023-01-31T11:23:28.801Z,4.03
2023-01-31T11:25:56.844Z,4.20
2023-01-31T11:28:36.533Z,5.03
2023-01-31T11:31:06.310Z,6.20
2023-01-31T11:34:00.365Z,4.88
2023-01-31T11:36:33.235Z,6.28
2023-01-31T11:39:00.055Z,4.93
2023-01-31T11:41:35.975Z,5.03
2023-01-31T11:44:23.479Z,4.05
2023-01-31T11:46:54.394Z,7.28
2023-01-31T11:49:27.365Z,5.72
2023-01-31T11:51:54.460Z,3.77
2023-01-31T11:54:29.881Z,4.50
2023-01-31T11:56:56.816Z,6.85
2023-01-31T11:59:29.236Z,5.88
2023-01-31T12:01:58.895Z,4.68
2023-01-31T12:04:43.663Z,4.88
2023-01-31T12:07:31.621Z,4.68
2023-01-31T12:09:58.219Z,4.43
2023-01-31T12:12:34.903Z,4.88
2023-01-31T12:15:14.709Z,4.78
2023-01-31T12:17:46.340Z,5.93
2023-01-31T12:20:44.623Z,4.70
2023-01-31T12:23:11.210Z,6.97
2023-01-31T12:26:14.014Z,7.40
2023-01-31T12:28:49.646Z,6.38
2023-01-31T12:31:42.126Z,5.93
2023-01-31T12:34:23.416Z,7.10
2023-01-31T12:36:52.775Z,4.15
2023-01-31T12:39:28.667Z,5.93
2023-01-31T12:42:19.051Z,10.02
2023-01-31T12:44:49.799Z,5.40
2023-01-31T12:47:29.221Z,4.22
2023-01-31T12:50:10.726Z,5.32
2023-01-31T12:53:13.478Z,6.45
2023-01-31T12:56:04.614Z,5.18
2023-01-31T12:59:15.278Z,3.88
2023-01-31T13:01:51.774Z,9.77
2023-01-31T13:04:57.085Z,4.60
2023-01-31T13:07:34.874Z,6.20
2023-01-31T13:10:05.664Z,4.45
2023-01-31T13:12:35.695Z,5.13
2023-01-31T13:15:28.693Z,6.05
2023-01-31T13:18:03.468Z,9.13
2023-01-31T13:20:37.127Z,6.72
2023-01-31T13:23:11.390Z,6.45
2023-01-31T13:25:46.567Z,3.88
2023-01-31T13:28:17.180Z,7.55
2023-01-31T13:30:57.808Z,6.72
2023-01-31T13:33:24.814Z,4.85
2023-01-31T13:36:04.062Z,5.20
2023-01-31T13:38:40.093Z,5.45
2023-01-31T13:41:11.229Z,4.30
2023-01-31T13:43:37.750Z,6.53
2023-01-31T13:46:09.579Z,3.00
2023-01-31T13:48:57.159Z,7.03
2023-01-31T13:51:35.206Z,5.32
2023-01-31T13:54:14.894Z,3.90
2023-01-31T13:56:42.206Z,8.52
2023-01-31T13:59:10.665Z,7.75
2023-01-31T14:01:46.717Z,4.15
2023-01-31T14:04:17.467Z,6.45
2023-01-31T14:07:13.792Z,5.90
2023-01-31T14:10:11.711Z,4.60
2023-01-31T14:12:38.900Z,5.35
2023-01-31T14:15:48.934Z,5.20
2023-01-31T14:18:35.698Z,6.05
2023-01-31T14:21:30.161Z,8.95
2023-01-31T14:23:59.124Z,6.63
2023-01-31T14:26:41.941Z,6.85
2023-01-31T14:29:26.448Z,8.60
2023-01-31T14:31:56.307Z,4.32
2023-01-31T14:34:24.306Z,5.68
2023-01-31T14:37:27.131Z,5.80
2023-01-31T14:40:17.074Z,4.35
2023-01-31T14:42:55.587Z,5.00
2023-01-31T14:45:58.483Z,9.43
2023-01-31T14:48:43.257Z,7.22
2023-01-31T14:51:10.068Z,5.72
2023-01-31T14:54:04.599Z,4.20
2023-01-31T14:56:52.889Z,4.95
2023-01-31T14:59:22.142Z,5.90
2023-01-31T15:01:48.771Z,4.82
2023-01-31T15:04:21.554Z,5.35
2023-01-31T15:06:52.314Z,4.00
2023-01-31T15:09:35.234Z,6.82
2023-01-31T15:12:01.784Z,4.22
2023-01-31T15:14:36.362Z,8.23
2023-01-31T15:17:06.072Z,5.30
2023-01-31T15:19:59.110Z,4.88
2023-01-31T15:22:26.535Z,5.10
2023-01-31T15:25:08.729Z,6.18
2023-01-31T15:27:43.009Z,6.32
2023-01-31T15:30:18.578Z,7.28
2023-01-31T15:33:01.922Z,4.25
2023-01-31T15:35:35.060Z,6.22
2023-01-31T15:38:40.710Z,3.60
2023-01-31T15:41:26.703Z,5.45
2023-01-31T15:43:55.520Z,5.40
2023-01-31T15:46:32.730Z,2.90
2023-01-31T15:49:00.693Z,5.13
2023-01-31T15:51:28.100Z,4.43
2023-01-31T15:54:08.807Z,5.28
2023-01-31T15:56:39.367Z,4.13
2023-01-31T15:59:12.778Z,7.55
2023-01-31T16:01:39.717Z,8.45
2023-01-31T16:04:06.568Z,11.52
2023-01-31T16:06:36.546Z,11.90
2023-01-31T16:09:05.873Z,10.25
2023-01-31T16:11:34.542Z,14.90
2023-01-31T16:14:04.049Z,11.70
2023-01-31T16:16:33.913Z,16.05
2023-01-31T16:19:01.691Z,12.90
2023-01-31T16:21:37.890Z,12.40
2023-01-31T16:24:22.547Z,12.65
2023-01-31T16:26:59.977Z,17.27
2023-01-31T16:29:48.282Z,14.18
2023-01-31T16:32:24.059Z,14.27
2023-01-31T16:35:01.272Z,15.88
2023-01-31T16:37:36.793Z,12.57
2023-01-31T16:40:27.881Z,13.95
2023-01-31T16:43:29.644Z,14.07
2023-01-31T16:45:59.497Z,16.15
2023-01-31T16:48:37.758Z,12.50
2023-01-31T16:51:22.601Z,13.48
2023-01-31T16:54:16.880Z,14.85
2023-01-31T16:56:45.040Z,16.83
2023-01-31T16:59:33.113Z,17.60
2023-01-31T17:02:24.994Z,22.52
2023-01-31T17:04:54.793Z,24.05
2023-01-31T17:07:35.982Z,24.08
2023-01-31T17:10:09.263Z,26.10
2023-01-31T17:12:39.161Z,28.88
2023-01-31T17:15:20.457Z,29.85
2023-01-31T17:17:48.178Z,30.92
2023-01-31T17:20:20.347Z,31.35
2023-01-31T17:22:56.839Z,29.27
2023-01-31T17:25:32.264Z,33.35
2023-01-31T17:27:58.797Z,29.92
2023-01-31T17:30:27.902Z,32.95
2023-01-31T17:32:54.515Z,35.97
2023-01-31T17:35:27.188Z,35.97
2023-01-31T17:37:53.712Z,31.02
2023-01-31T17:40:20.357Z,37.95
2023-01-31T17:42:47.370Z,38.58
2023-01-31T17:45:17.397Z,36.90
2023-01-31T17:47:44.914Z,40.58
2023-01-31T17:50:20.190Z,35.08
2023-01-31T17:52:46.990Z,38.63
2023-01-31T17:55:14.333Z,38.28
2023-01-31T17:57:41.255Z,37.50
2023-01-31T18:00:13.365Z,33.50
2023-01-31T18:02:42.832Z,37.78
2023-01-31T18:05:14.550Z,35.22
2023-01-31T18:07:41.092Z,35.45
2023-01-31T18:10:09.276Z,34.25
2023-01-31T18:12:36.585Z,40.78
2023-01-31T18:15:04.137Z,38.88
2023-01-31T18:17:31.155Z,40.33
2023-01-31T18:19:57.666Z,35.67
2023-01-31T18:22:24.981Z,38.15
2023-01-31T18:24:51.547Z,35.58
2023-01-31T18:27:18.469Z,38.83
2023-01-31T18:29:44.998Z,41.55
2023-01-31T18:32:11.562Z,43.35
2023-01-31T18:34:38.526Z,42.15
2023-01-31T18:37:10.356Z,42.95
2023-01-31T18:39:37.083Z,40.72
2023-01-31T18:42:03.967Z,40.70
2023-01-31T18:44:31.223Z,38.67
2023-01-31T18:46:57.832Z,40.65
2023-01-31T18:49:24.410Z,39.33
2023-01-31T18:51:51.363Z,40.97
2023-01-31T18:54:17.981Z,40.05
2023-01-31T18:56:44.707Z,38.55
2023-01-31T18:59:11.506Z,44.65
2023-01-31T19:01:40.607Z,42.78
2023-01-31T19:04:08.788Z,43.20
2023-01-31T19:06:37.334Z,43.35
2023-01-31T19:09:09.253Z,39.70
2023-01-31T19:11:36.469Z,41.67
2023-01-31T19:14:06.553Z,37.95
2023-01-31T19:16:37.560Z,38.80
2023-01-31T19:19:04.249Z,37.92
2023-01-31T19:21:33.028Z,41.08
2023-01-31T19:24:05.394Z,39.78
2023-01-31T19:26:34.266Z,39.38
2023-01-31T19:29:01.384Z,40.35
2023-01-31T19:31:32.701Z,39.80
2023-01-31T19:34:01.600Z,40.33
2023-01-31T19:36:30.593Z,43.25
2023-01-31T19:38:59.325Z,44.92
2023-01-31T19:41:28.139Z,43.50
2023-01-31T19:43:56.574Z,42.00
2023-01-31T19:46:24.950Z,44.30
2023-01-31T19:48:51.903Z,43.65
2023-01-31T19:51:20.772Z,40.05
2023-01-31T19:53:48.094Z,41.80
2023-01-31T19:56:15.166Z,38.40
2023-01-31T19:58:42.169Z,43.35
2023-01-31T20:01:11.057Z,42.00
2023-01-31T20:03:38.184Z,42.88
2023-01-31T20:06:07.982Z,38.15
2023-01-31T20:08:35.472Z,41.17
2023-01-31T20:11:02.892Z,38.70
2023-01-31T20:13:29.632Z,40.75
2023-01-31T20:15:57.793Z,35.65
2023-01-31T20:18:25.259Z,39.05
2023-01-31T20:20:52.635Z,36.60
2023-01-31T20:23:19.466Z,36.38
2023-01-31T20:25:50.430Z,34.58
2023-01-31T20:28:17.624Z,39.60
2023-01-31T20:30:44.936Z,41.45
2023-01-31T20:33:12.643Z,38.90
2023-01-31T20:35:40.512Z,38.00
2023-01-31T20:38:07.718Z,40.72
2023-01-31T20:40:34.517Z,41.20
2023-01-31T20:43:01.079Z,37.83
2023-01-31T20:45:30.527Z,38.78
2023-01-31T20:47:58.526Z,37.72
2023-01-31T20:50:26.131Z,37.83
2023-01-31T20:52:56.405Z,37.90
2023-01-31T20:55:23.902Z,39.30
2023-01-31T20:57:51.680Z,42.03
2023-01-31T21:00:19.909Z,44.53
2023-01-31T21:02:47.366Z,37.22
2023-01-31T21:05:13.970Z,40.95
2023-01-31T21:07:40.483Z,42.97
2023-01-31T21:10:08.028Z,41.65
2023-01-31T21:12:34.591Z,40.47
2023-01-31T21:15:01.127Z,36.95
2023-01-31T21:17:39.087Z,38.85
2023-01-31T21:20:07.767Z,40.63
2023-01-31T21:22:34.805Z,39.60
2023-01-31T21:25:01.452Z,38.92
2023-01-31T21:27:28.020Z,38.20
2023-01-31T21:29:54.571Z,39.80
2023-01-31T21:32:21.121Z,40.17
2023-01-31T21:34:47.653Z,38.83
2023-01-31T21:37:14.200Z,39.15
2023-01-31T21:39:40.721Z,37.45
2023-01-31T21:42:16.233Z,41.00
2023-01-31T21:44:43.997Z,40.67
2023-01-31T21:47:10.638Z,38.17
2023-01-31T21:49:37.375Z,38.83
2023-01-31T21:52:05.143Z,34.33
2023-01-31T21:54:32.101Z,38.97
2023-01-31T21:56:58.885Z,33.10
2023-01-31T21:59:25.777Z,37.38
2023-01-31T22:01:52.373Z,35.45
2023-01-31T22:04:21.063Z,39.03
2023-01-31T22:06:51.048Z,43.55
2023-01-31T22:09:18.437Z,34.40
2023-01-31T22:11:47.465Z,36.38
2023-01-31T22:14:16.057Z,35.88
2023-01-31T22:16:43.421Z,40.30
2023-01-31T22:19:12.230Z,37.08
2023-01-31T22:21:39.361Z,39.00
2023-01-31T22:24:07.960Z,33.65
2023-01-31T22:26:40.539Z,33.95
2023-01-31T22:29:10.459Z,33.40
2023-01-31T22:31:37.150Z,35.58
2023-01-31T22:34:05.417Z,38.15
2023-01-31T22:36:33.219Z,36.38
2023-01-31T22:39:00.068Z,34.72
2023-01-31T22:41:27.147Z,33.03
2023-01-31T22:43:54.095Z,31.33
2023-01-31T22:46:23.765Z,33.42
2023-01-31T22:48:51.020Z,35.80
2023-01-31T22:51:19.987Z,34.53
2023-01-31T22:53:47.454Z,29.90
2023-01-31T22:56:19.414Z,33.78
2023-01-31T22:58:46.188Z,32.35
2023-01-31T23:01:21.440Z,32.83
2023-01-31T23:03:48.829Z,31.00
2023-01-31T23:06:17.249Z,30.33
2023-01-31T23:08:44.343Z,30.08
2023-01-31T23:11:13.119Z,29.98
2023-01-31T23:13:40.262Z,31.75
2023-01-31T23:16:08.605Z,29.42
2023-01-31T23:18:35.563Z,29.77
2023-01-31T23:21:10.628Z,28.27
2023-01-31T23:23:37.380Z,27.83
2023-01-31T23:26:05.114Z,27.45
2023-01-31T23:28:32.291Z,28.55
2023-01-31T23:30:58.929Z,29.20
2023-01-31T23:33:25.492Z,27.17
2023-01-31T23:35:52.348Z,27.08
2023-01-31T23:38:19.018Z,27.88
2023-01-31T23:40:50.822Z,26.35
2023-01-31T23:43:17.425Z,24.73
2023-01-31T23:45:44.031Z,27.58
2023-01-31T23:48:10.585Z,26.30
2023-01-31T23:50:37.742Z,23.88
2023-01-31T23:53:04.464Z,26.92
2023-01-31T23:55:30.956Z,20.92
2023-01-31T23:57:57.502Z,23.60
